Biloxi, MS (39530)

7:05 AM CDT on May 27, 2017 (GMT -0500)
Forest Cove | | Change Station

Elev 38 ft 30.44 °N, 88.90 °W | Updated 26 seconds ago

Overcast
Overcast
77.4 °F
Feels Like 79 °F
N
4.0
Wind Variable Wind from WSW

Today
High -- | Low -- °F
--% Chance of Precip.
Yesterday
High -- | Low -- °F
Precip. -- in
Pressure 30.04 in
Visibility 10.0 miles
Clouds Mostly Cloudy 1100 ft
Mostly Cloudy 1700 ft
Mostly Cloudy 2800 ft
Overcast 3600 ft
Heat Index 79 °F
Dew Point 74 °F
Humidity 91%
Rainfall 0.00 in
Snow Depth Not available.
5:55 AM 7:50 PM
Waxing Crescent, 4% visible
METAR KBIX 271158Z AUTO 23008KT 10SM BKN011 BKN017 BKN028 OVC036 25/23 A3003 RMK AO2 CIG 011V028 BKN011 V SCT SLP172 53019
Pressure 30.04 in
Visibility 10.0 miles
Clouds Mostly Cloudy 1100 ft
Mostly Cloudy 1700 ft
Mostly Cloudy 2800 ft
Overcast 3600 ft
Heat Index 79 °F
Dew Point 74 °F
Humidity 91%
Rainfall 0.00 in
Snow Depth Not available.
5:55 AM 7:50 PM
Waxing Crescent, 4% visible
METAR KBIX 271158Z AUTO 23008KT 10SM BKN011 BKN017 BKN028 OVC036 25/23 A3003 RMK AO2 CIG 011V028 BKN011 V SCT SLP172 53019

Get Severe Weather Alerts

Thanks for signing up!

Be on the lookout for a verification email in your inbox.

You'll start receiving the daily forecast at 6 AM.

×

10-Day Weather Forecast

Almanac

Astronomy

May. 27, 2017 Rise Set
Actual Time
Civil Twilight
Nautical Twilight
Astronomical Twilight
Moon
Length of Visible Light
Length of Day
Tomorrow will be .
, % of the Moon is Illuminated

Today's Extremes

State Highs State Lows

Community

WunderPhotos

Category 6

Welcome to Category 6. This is the collective home for Weather Underground's featured writeups by Dr. Jeff Masters (right), Bob Henson (left), Chris Burt, and other regular contributors.

Nearby

Air Quality

  Air Quality AQ Index Pollutant
Not available.

Snow Depth

Station Depth Elevation

Earthquake Activity

City Distance Mag. Time & Date
Minimum magnitude displayed is 2.5.

Coastal Water Temperatures

Place Temperature

Stations

Nearby Weather Stations

Station Location Temp. Windchill Dew Point Humidity Wind Precip. Elev Updated Type
                   

Watches & Warnings

There are currently no watches in effect.